Time,TemperatureF,DewpointF,PressureIn,WindDirection,WindDirectionDegrees,WindSpeedMPH,WindSpeedGustMPH,Humidity,HourlyPrecipIn,Conditions,Clouds,dailyrainin,SoftwareType,DateUTC
2013-10-22 00:13:00,45.0,34.0,29.97,NW,313,4.0,10.0,66,0.00,,,0.00,,2013-10-22 04:13:00,
2013-10-22 00:24:00,44.0,33.0,29.98,WNW,294,6.0,10.0,65,0.00,,,0.00,,2013-10-22 04:24:00,
2013-10-22 00:55:00,43.0,32.0,29.98,NW,321,5.0,9.0,65,0.00,,,0.00,,2013-10-22 04:55:00,
2013-10-22 01:22:00,42.0,30.0,29.99,WNW,302,7.0,11.0,62,0.00,,,0.00,,2013-10-22 05:22:00,
2013-10-22 01:52:00,41.0,30.0,30.00,NNW,333,3.0,6.0,65,0.00,,,0.00,,2013-10-22 05:52:00,
2013-10-22 02:12:00,40.0,30.0,30.00,North,5,2.0,4.0,66,0.00,,,0.00,,2013-10-22 06:12:00,
2013-10-22 02:22:00,40.0,30.0,30.00,North,11,1.0,2.0,66,0.00,,,0.00,,2013-10-22 06:22:00,
2013-10-22 02:42:00,39.0,29.0,30.00,North,11,1.0,1.0,67,0.00,,,0.00,,2013-10-22 06:42:00,
2013-10-22 02:53:00,39.0,29.0,30.00,North,11,0.0,2.0,67,0.00,,,0.00,,2013-10-22 06:53:00,
2013-10-22 03:22:00,38.0,29.0,30.00,North,11,0.0,1.0,70,0.00,,,0.00,,2013-10-22 07:22:00,
2013-10-22 03:52:00,38.0,29.0,30.00,North,11,0.0,0.0,71,0.00,,,0.00,,2013-10-22 07:52:00,
2013-10-22 04:22:00,36.0,30.0,30.00,East,98,1.0,3.0,79,0.00,,,0.00,,2013-10-22 08:22:00,
2013-10-22 04:42:00,35.0,30.0,30.00,ESE,105,1.0,2.0,82,0.00,,,0.00,,2013-10-22 08:42:00,
2013-10-22 04:52:00,35.0,30.0,29.99,ESE,105,0.0,1.0,83,0.00,,,0.00,,2013-10-22 08:52:00,
2013-10-22 05:21:00,34.0,30.0,30.00,SE,143,2.0,3.0,86,0.00,,,0.00,,2013-10-22 09:21:00,
2013-10-22 05:54:00,34.0,29.0,29.99,SSW,207,2.0,3.0,83,0.00,,,0.00,,2013-10-22 09:54:00,
2013-10-22 06:23:00,34.0,30.0,30.00,SW,230,3.0,4.0,84,0.00,,,0.00,,2013-10-22 10:23:00,
2013-10-22 06:43:00,35.0,30.0,30.00,SW,227,3.0,4.0,83,0.00,,,0.00,,2013-10-22 10:43:00,
2013-10-22 06:53:00,35.0,29.0,30.00,SW,216,3.0,4.0,80,0.00,,,0.00,,2013-10-22 10:53:00,
2013-10-22 07:22:00,35.0,29.0,30.01,SW,216,3.0,4.0,79,0.00,,,0.00,,2013-10-22 11:22:00,
2013-10-22 07:52:00,34.0,29.0,30.01,SW,215,2.0,3.0,82,0.00,,,0.00,,2013-10-22 11:52:00,
2013-10-22 08:22:00,34.0,29.0,30.01,SSW,211,2.0,3.0,82,0.00,,,0.00,,2013-10-22 12:22:00,
2013-10-22 08:42:00,34.0,29.0,30.01,South,186,3.0,4.0,82,0.00,,,0.00,,2013-10-22 12:42:00,
2013-10-22 08:52:00,35.0,30.0,30.01,South,185,2.0,3.0,82,0.00,,,0.00,,2013-10-22 12:52:00,
2013-10-22 09:21:00,38.0,31.0,30.01,SE,142,2.0,4.0,77,0.00,,,0.00,,2013-10-22 13:21:00,
2013-10-22 09:42:00,39.0,30.0,30.01,South,190,3.0,5.0,71,0.00,,,0.00,,2013-10-22 13:42:00,
2013-10-22 09:53:00,40.0,31.0,30.02,South,190,3.0,7.0,69,0.00,,,0.00,,2013-10-22 13:53:00,
2013-10-22 10:21:00,43.0,30.0,30.02,SW,219,3.0,6.0,59,0.00,,,0.00,,2013-10-22 14:21:00,
2013-10-22 10:42:00,45.0,30.0,30.02,SW,219,4.0,9.0,56,0.00,,,0.00,,2013-10-22 14:42:00,
2013-10-22 10:52:00,45.0,30.0,30.01,West,260,4.0,7.0,55,0.00,,,0.00,,2013-10-22 14:52:00,
2013-10-22 11:22:00,47.0,30.0,30.00,WSW,237,4.0,8.0,51,0.00,,,0.00,,2013-10-22 15:22:00,
2013-10-22 11:54:00,50.0,30.0,29.99,East,100,1.0,3.0,46,0.00,,,0.00,,2013-10-22 15:54:00,
2013-10-22 12:23:00,51.0,29.0,29.98,SSW,207,4.0,8.0,42,0.00,,,0.00,,2013-10-22 16:23:00,
2013-10-22 12:53:00,51.0,29.0,29.96,SE,145,2.0,9.0,42,0.00,,,0.00,,2013-10-22 16:53:00,
2013-10-22 13:22:00,52.0,31.0,29.96,SW,224,3.0,8.0,44,0.00,,,0.00,,2013-10-22 17:22:00,
2013-10-22 13:43:00,51.0,30.0,29.94,SE,140,1.0,4.0,44,0.00,,,0.00,,2013-10-22 17:43:00,
2013-10-22 13:52:00,52.0,30.0,29.94,SSW,205,4.0,8.0,42,0.00,,,0.00,,2013-10-22 17:52:00,
2013-10-22 14:22:00,52.0,31.0,29.93,ESE,115,5.0,12.0,44,0.00,,,0.00,,2013-10-22 18:22:00,
2013-10-22 14:42:00,51.0,30.0,29.91,SSE,165,7.0,14.0,45,0.00,,,0.00,,2013-10-22 18:42:00,
2013-10-22 14:52:00,51.0,31.0,29.90,SE,138,4.0,14.0,46,0.00,,,0.00,,2013-10-22 18:52:00,
2013-10-22 15:22:00,50.0,31.0,29.89,SSE,163,5.0,9.0,48,0.00,,,0.00,,2013-10-22 19:22:00,
2013-10-22 15:42:00,50.0,32.0,29.89,South,175,4.0,9.0,49,0.00,,,0.00,,2013-10-22 19:42:00,
2013-10-22 15:53:00,50.0,31.0,29.88,SSE,151,6.0,11.0,48,0.00,,,0.00,,2013-10-22 19:53:00,
2013-10-22 16:22:00,50.0,31.0,29.87,South,175,5.0,8.0,48,0.00,,,0.00,,2013-10-22 20:22:00,
2013-10-22 16:43:00,50.0,31.0,29.88,SSE,151,3.0,8.0,48,0.00,,,0.00,,2013-10-22 20:43:00,
2013-10-22 16:52:00,51.0,32.0,29.86,SSE,151,3.0,9.0,48,0.00,,,0.00,,2013-10-22 20:52:00,
2013-10-22 17:23:00,50.0,32.0,29.85,SSE,158,3.0,6.0,50,0.00,,,0.00,,2013-10-22 21:23:00,
2013-10-22 17:44:00,50.0,33.0,29.85,SE,145,5.0,13.0,51,0.00,,,0.00,,2013-10-22 21:44:00,
2013-10-22 17:54:00,50.0,33.0,29.84,SSE,150,7.0,12.0,52,0.00,,,0.00,,2013-10-22 21:54:00,
2013-10-22 18:24:00,49.0,34.0,29.84,SSE,167,4.0,9.0,55,0.00,,,0.00,,2013-10-22 22:24:00,
2013-10-22 18:44:00,49.0,34.0,29.83,SE,136,4.0,10.0,55,0.00,,,0.00,,2013-10-22 22:44:00,
2013-10-22 18:54:00,49.0,34.0,29.83,SSE,165,4.0,8.0,57,0.00,,,0.00,,2013-10-22 22:54:00,
2013-10-22 19:23:00,48.0,37.0,29.83,ESE,103,1.0,1.0,66,0.00,,,0.00,,2013-10-22 23:23:00,
2013-10-22 19:53:00,47.0,38.0,29.83,ENE,67,0.0,2.0,70,0.00,,,0.00,,2013-10-22 23:53:00,
2013-10-22 20:11:00,47.0,39.0,29.83,ENE,67,0.0,1.0,73,0.00,,,0.00,,2013-10-23 00:11:00,
2013-10-22 20:22:00,46.0,39.0,29.83,ENE,65,0.0,2.0,75,0.00,,,0.00,,2013-10-23 00:22:00,
2013-10-22 20:42:00,46.0,38.0,29.83,ENE,61,0.0,2.0,74,0.00,,,0.00,,2013-10-23 00:42:00,
2013-10-22 20:52:00,46.0,38.0,29.84,ENE,58,1.0,2.0,74,0.00,,,0.00,,2013-10-23 00:52:00,
2013-10-22 21:23:00,45.0,38.0,29.83,ENE,59,0.0,1.0,77,0.00,,,0.00,,2013-10-23 01:23:00,
2013-10-22 21:42:00,45.0,38.0,29.82,East,86,2.0,5.0,75,0.00,,,0.00,,2013-10-23 01:42:00,
2013-10-22 21:52:00,46.0,38.0,29.81,ENE,71,2.0,4.0,74,0.00,,,0.00,,2013-10-23 01:52:00,
2013-10-22 22:22:00,45.0,38.0,29.79,ESE,114,3.0,6.0,77,0.00,,,0.00,,2013-10-23 02:22:00,
2013-10-22 22:42:00,45.0,39.0,29.80,SE,132,3.0,5.0,78,0.00,,,0.00,,2013-10-23 02:42:00,
2013-10-22 22:54:00,45.0,39.0,29.81,SSW,192,0.0,2.0,80,0.00,,,0.00,,2013-10-23 02:54:00,
2013-10-22 23:22:00,45.0,40.0,29.79,SSE,150,1.0,4.0,83,0.01,,,0.01,,2013-10-23 03:22:00,
2013-10-22 23:55:00,44.0,40.0,29.78,SE,128,2.0,4.0,87,0.03,,,0.03,,2013-10-23 03:55:00,